Time;durP1;ratioP1;P1;durP2;ratioP2;P2;SDS_P1;SDS_P2;PMS_P1;PMS_P2;Temp;Humidity;BMP_temperature;BMP_pressure;BME280_temperature;BME280_humidity;BME280_pressure;Samples;Min_cycle;Max_cycle;Signal;HPM_P1;HPM_P2
2022/02/08 00:00:32;;;;;;;9.10;7.50;;;6.80;99.90;;;;;;4982856;28;20206;-65
2022/02/08 00:02:58;;;;;;;12.40;9.47;;;6.80;99.90;;;;;;4974628;28;20548;-66
2022/02/08 00:05:26;;;;;;;10.17;8.80;;;6.90;99.90;;;;;;4984584;28;20188;-66
2022/02/08 00:07:54;;;;;;;9.77;8.77;;;6.90;99.90;;;;;;4993291;28;20192;-65
2022/02/08 00:10:20;;;;;;;9.47;7.83;;;6.90;99.90;;;;;;4985203;28;20178;-65
2022/02/08 00:12:46;;;;;;;8.67;7.87;;;6.90;99.90;;;;;;4974427;28;20533;-67
2022/02/08 00:15:12;;;;;;;10.17;9.17;;;6.90;99.90;;;;;;4981550;28;20225;-66
2022/02/08 00:17:38;;;;;;;10.47;9.53;;;6.90;99.90;;;;;;4994050;28;20207;-66
2022/02/08 00:20:07;;;;;;;9.90;9.10;;;6.90;99.90;;;;;;4988365;28;20550;-65
2022/02/08 00:22:33;;;;;;;10.47;9.23;;;6.70;99.90;;;;;;4972803;28;20212;-65
2022/02/08 00:24:59;;;;;;;11.70;10.03;;;6.70;99.90;;;;;;4988971;28;20224;-66
2022/02/08 00:27:25;;;;;;;9.87;9.07;;;6.70;99.90;;;;;;4993871;28;20241;-66
2022/02/08 00:29:51;;;;;;;16.03;9.40;;;6.60;99.90;;;;;;4977928;28;20182;-65
2022/02/08 00:32:16;;;;;;;9.20;8.03;;;6.50;99.90;;;;;;4978804;28;20188;-66
2022/02/08 00:34:42;;;;;;;8.60;7.80;;;6.60;99.90;;;;;;4993580;28;20204;-66
2022/02/08 00:37:08;;;;;;;11.23;10.07;;;6.60;99.90;;;;;;4990065;28;20289;-66
2022/02/08 00:39:34;;;;;;;12.20;7.57;;;6.50;99.90;;;;;;4973075;28;20186;-66
2022/02/08 00:42:06;;;;;;;12.50;7.60;;;6.50;99.90;;;;;;4973982;28;20213;-65
2022/02/08 00:44:47;;;;;;;7.83;7.23;;;6.50;99.90;;;;;;4992932;28;20181;-66
2022/02/08 00:47:24;;;;;;;13.97;7.77;;;6.50;99.90;;;;;;4990410;28;20687;-66
2022/02/08 00:49:50;;;;;;;15.30;9.50;;;6.50;99.90;;;;;;4974001;28;20184;-65
2022/02/08 00:52:16;;;;;;;10.07;8.83;;;6.60;99.90;;;;;;4976735;28;20185;-66
2022/02/08 00:54:43;;;;;;;10.53;9.43;;;6.60;99.90;;;;;;4973804;28;20205;-66
2022/02/08 00:57:09;;;;;;;13.77;9.80;;;6.60;99.90;;;;;;4978164;28;20221;-67
2022/02/08 00:59:35;;;;;;;9.37;8.47;;;6.60;99.90;;;;;;4993300;28;20547;-66
2022/02/08 01:02:00;;;;;;;8.17;7.57;;;6.60;99.90;;;;;;4986999;28;20661;-65
2022/02/08 01:04:26;;;;;;;11.97;7.90;;;6.50;99.90;;;;;;4973745;28;20170;-66
2022/02/08 01:06:54;;;;;;;7.93;7.23;;;6.40;99.90;;;;;;4976383;28;20601;-66
2022/02/08 01:09:28;;;;;;;11.20;9.97;;;6.40;99.90;;;;;;4993083;28;20165;-66
2022/02/08 01:11:55;;;;;;;10.10;9.40;;;6.40;99.90;;;;;;4979299;28;20189;-66
2022/02/08 01:14:23;;;;;;;8.93;7.43;;;6.40;99.90;;;;;;4973375;28;20178;-66
2022/02/08 01:16:50;;;;;;;11.23;8.43;;;6.30;99.90;;;;;;4985355;28;20208;-66
2022/02/08 01:19:18;;;;;;;10.63;8.00;;;6.30;99.90;;;;;;4991592;28;20192;-66
2022/02/08 01:21:43;;;;;;;8.30;7.60;;;6.30;99.90;;;;;;4975550;28;20209;-65
2022/02/08 01:24:09;;;;;;;8.30;7.57;;;6.30;99.90;;;;;;4973294;28;20184;-65
2022/02/08 01:26:44;;;;;;;12.27;7.60;;;6.30;99.90;;;;;;4988244;28;20254;-65
2022/02/08 01:29:23;;;;;;;8.03;7.43;;;6.30;99.90;;;;;;4992798;28;20412;-65
2022/02/08 01:31:51;;;;;;;8.33;7.67;;;6.30;99.90;;;;;;4974667;28;20185;-65
2022/02/08 01:34:30;;;;;;;10.40;7.07;;;6.40;99.90;;;;;;4971829;28;20236;-66
2022/02/08 01:45:50;;;;;;;12.47;7.70;;;6.30;99.90;;;;;;4992629;28;20859;-66
2022/02/08 01:50:55;;;;;;;8.70;7.57;;;6.30;99.90;;;;;;4992589;28;20176;-66
2022/02/08 01:53:22;;;;;;;9.47;7.20;;;6.30;99.90;;;;;;4989322;28;20553;-67
2022/02/08 01:55:49;;;;;;;7.50;6.87;;;6.30;99.90;;;;;;4970718;28;20192;-65
2022/02/08 01:58:15;;;;;;;7.87;6.93;;;6.30;99.90;;;;;;4973038;28;20189;-66
2022/02/08 02:00:41;;;;;;;7.90;7.27;;;6.30;99.90;;;;;;4992130;28;20216;-65
2022/02/08 02:03:07;;;;;;;7.80;7.17;;;6.30;99.90;;;;;;4991580;28;20249;-66
2022/02/08 02:05:33;;;;;;;8.07;6.67;;;6.30;99.90;;;;;;4971697;28;20268;-65
2022/02/08 02:07:59;;;;;;;7.97;7.17;;;6.30;99.90;;;;;;4972614;28;20272;-66
2022/02/08 02:10:26;;;;;;;9.67;6.50;;;6.40;99.90;;;;;;4990224;28;20231;-66
2022/02/08 02:12:58;;;;;;;7.57;7.00;;;6.40;99.90;;;;;;4990588;28;20177;-66
2022/02/08 02:15:24;;;;;;;9.73;7.07;;;6.40;99.90;;;;;;4975042;28;20190;-67
2022/02/08 02:17:50;;;;;;;9.03;8.40;;;6.40;99.90;;;;;;4984429;28;20253;-66
2022/02/08 02:20:17;;;;;;;8.40;7.70;;;6.50;99.90;;;;;;4992137;28;20207;-66
2022/02/08 02:22:43;;;;;;;8.20;7.60;;;6.60;99.90;;;;;;4979483;28;20185;-65
2022/02/08 02:25:20;;;;;;;7.80;7.30;;;6.60;99.90;;;;;;4972720;28;20184;-66
2022/02/08 02:27:48;;;;;;;8.97;8.07;;;6.60;99.90;;;;;;4972292;28;20201;-66
2022/02/08 02:30:14;;;;;;;9.00;8.50;;;6.70;99.90;;;;;;4972700;28;20181;-66
2022/02/08 02:32:40;;;;;;;11.03;8.40;;;6.70;99.90;;;;;;4987994;28;20184;-66
2022/02/08 02:35:06;;;;;;;8.30;7.70;;;6.80;99.90;;;;;;4991981;28;20169;-66
2022/02/08 02:37:31;;;;;;;8.17;7.50;;;6.80;99.90;;;;;;4974620;28;20194;-65
2022/02/08 02:39:57;;;;;;;10.87;7.50;;;6.80;99.90;;;;;;4972523;28;20722;-66
2022/02/08 02:42:26;;;;;;;8.57;7.00;;;6.80;99.90;;;;;;4984503;28;20295;-66
2022/02/08 02:44:51;;;;;;;7.90;7.27;;;6.90;99.90;;;;;;4989948;28;20168;-66
2022/02/08 02:47:17;;;;;;;8.07;7.27;;;7.00;99.90;;;;;;4972436;28;20202;-66
2022/02/08 02:49:43;;;;;;;7.83;7.30;;;7.00;99.90;;;;;;4972360;28;20555;-66
2022/02/08 02:52:08;;;;;;;8.00;7.30;;;7.00;99.90;;;;;;4991267;28;20611;-66
2022/02/08 02:54:34;;;;;;;8.33;7.53;;;7.10;99.90;;;;;;4990398;28;20191;-65
2022/02/08 02:57:01;;;;;;;8.23;7.40;;;7.00;99.90;;;;;;4972472;28;20293;-66
2022/02/08 02:59:29;;;;;;;7.53;6.87;;;7.00;99.90;;;;;;4972665;28;20200;-66
2022/02/08 03:02:21;;;;;;;8.13;7.63;;;6.90;99.90;;;;;;4987192;28;20212;-66
2022/02/08 03:20:45;;;;;;;8.07;7.47;;;7.00;99.90;;;;;;4974968;28;20201;-66
2022/02/08 03:23:11;;;;;;;7.53;6.93;;;7.00;99.90;;;;;;4975568;28;20180;-66
2022/02/08 03:25:37;;;;;;;7.30;6.90;;;7.10;99.90;;;;;;4994704;28;20181;-65
2022/02/08 03:28:02;;;;;;;7.37;6.77;;;7.10;99.90;;;;;;4993529;28;20635;-65
2022/02/08 03:30:28;;;;;;;8.03;7.40;;;7.10;99.90;;;;;;4976069;28;20185;-66
2022/02/08 03:32:55;;;;;;;8.10;7.50;;;7.20;99.90;;;;;;4974944;28;20644;-66
2022/02/08 03:35:21;;;;;;;7.57;7.07;;;7.20;99.90;;;;;;4990489;28;20650;-66
2022/02/08 03:37:56;;;;;;;8.43;7.30;;;7.20;99.90;;;;;;4994454;28;20546;-65
2022/02/08 03:45:49;;;;;;;7.93;7.30;;;7.30;99.90;;;;;;4975108;28;20197;-66
2022/02/08 03:48:17;;;;;;;8.27;7.37;;;7.40;99.90;;;;;;4975271;28;20166;-66
2022/02/08 03:50:49;;;;;;;7.60;7.17;;;7.40;99.90;;;;;;4993170;28;20177;-66
2022/02/08 03:53:15;;;;;;;7.43;6.93;;;7.40;99.90;;;;;;4994398;28;20173;-66
2022/02/08 03:55:40;;;;;;;8.63;8.13;;;7.40;99.90;;;;;;4975596;28;20174;-66
2022/02/08 03:58:06;;;;;;;7.60;7.10;;;7.40;99.90;;;;;;4975678;28;20213;-66
2022/02/08 04:00:39;;;;;;;7.03;6.70;;;7.40;99.90;;;;;;4988954;28;20180;-66
2022/02/08 04:03:05;;;;;;;8.13;7.47;;;7.30;99.90;;;;;;4980255;28;20552;-67
2022/02/08 04:05:36;;;;;;;8.10;7.50;;;7.20;99.90;;;;;;4974982;28;20174;-66
2022/02/08 04:08:06;;;;;;;9.10;8.00;;;7.20;99.90;;;;;;4985850;28;20247;-66
2022/02/08 04:10:32;;;;;;;8.47;7.67;;;7.30;99.90;;;;;;4994048;28;20173;-66
2022/02/08 04:45:05;;;;;;;8.30;7.70;;;7.20;99.90;;;;;;4993694;28;20617;-65
2022/02/08 04:47:41;;;;;;;8.17;7.57;;;7.20;99.90;;;;;;4975889;28;20252;-66
2022/02/08 04:50:08;;;;;;;8.63;7.93;;;7.20;99.90;;;;;;4974043;28;20166;-66
2022/02/08 04:52:34;;;;;;;8.07;7.47;;;7.20;99.90;;;;;;4990772;28;20647;-65
2022/02/08 04:57:48;;;;;;;7.93;7.40;;;7.20;99.90;;;;;;4975524;28;20304;-66
2022/02/08 05:44:26;;;;;;;9.90;8.97;;;7.30;99.90;;;;;;4972545;28;20204;-67
2022/02/08 05:46:52;;;;;;;9.53;8.57;;;7.30;99.90;;;;;;4972630;28;20204;-66
2022/02/08 05:50:04;;;;;;;9.53;8.87;;;7.30;99.90;;;;;;4973939;28;20254;-66
2022/02/08 05:54:37;;;;;;;8.63;7.87;;;7.40;99.90;;;;;;4972614;28;20170;-66
2022/02/08 05:57:02;;;;;;;9.43;8.70;;;7.40;99.90;;;;;;4974567;28;20278;-66
2022/02/08 05:59:28;;;;;;;9.87;8.93;;;7.40;99.90;;;;;;4990930;28;20181;-66
2022/02/08 06:01:54;;;;;;;12.13;9.50;;;7.40;99.90;;;;;;4990774;28;20244;-66
2022/02/08 06:04:19;;;;;;;8.00;7.50;;;7.40;99.90;;;;;;4972386;28;20181;-66
2022/02/08 06:06:45;;;;;;;8.97;8.37;;;7.40;99.90;;;;;;4971474;28;20593;-68
2022/02/08 06:09:11;;;;;;;9.50;8.50;;;7.50;99.90;;;;;;4973890;28;20186;-66
2022/02/08 06:11:37;;;;;;;9.33;8.60;;;7.50;99.90;;;;;;4984094;28;20227;-66
2022/02/08 06:14:04;;;;;;;8.40;7.80;;;7.50;99.90;;;;;;4991458;28;20208;-66
2022/02/08 06:16:31;;;;;;;9.30;8.60;;;7.50;99.90;;;;;;4982037;28;20690;-66
2022/02/08 06:18:56;;;;;;;9.40;8.60;;;7.50;99.90;;;;;;4979262;28;20173;-66
2022/02/08 06:21:22;;;;;;;8.70;8.10;;;7.50;99.90;;;;;;4990794;28;20215;-66
2022/02/08 06:23:48;;;;;;;10.20;9.40;;;7.50;99.90;;;;;;4986270;28;20184;-66
2022/02/08 06:26:15;;;;;;;9.40;8.77;;;7.50;99.90;;;;;;4970798;28;20201;-66
2022/02/08 06:28:41;;;;;;;9.43;8.63;;;7.50;99.90;;;;;;4976871;28;20705;-66
2022/02/08 06:31:06;;;;;;;9.57;8.73;;;7.50;99.90;;;;;;4992039;28;20225;-66
2022/02/08 06:33:32;;;;;;;9.57;8.73;;;7.50;99.90;;;;;;4988244;28;20276;-66
2022/02/08 06:35:57;;;;;;;11.67;8.83;;;7.60;99.90;;;;;;4972373;28;20348;-66
2022/02/08 06:38:23;;;;;;;10.10;9.23;;;7.50;99.90;;;;;;4973772;28;20177;-66
2022/02/08 06:40:52;;;;;;;9.60;8.70;;;7.50;99.90;;;;;;4990747;28;20290;-66
2022/02/08 06:43:20;;;;;;;9.93;9.10;;;7.60;99.90;;;;;;4993805;28;20235;-66
2022/02/08 06:45:45;;;;;;;10.00;9.13;;;7.60;99.90;;;;;;4975796;28;20170;-66
2022/02/08 06:48:11;;;;;;;9.60;8.70;;;7.60;99.90;;;;;;4990874;28;20200;-66
2022/02/08 06:50:37;;;;;;;10.80;8.67;;;7.60;99.90;;;;;;4994585;28;20231;-66
2022/02/08 06:53:03;;;;;;;8.93;8.33;;;7.60;99.90;;;;;;4982451;28;20228;-66
2022/02/08 06:55:29;;;;;;;8.83;8.13;;;7.60;99.90;;;;;;4976230;28;20174;-66
2022/02/08 07:00:30;;;;;;;9.03;8.13;;;7.60;99.90;;;;;;4982894;28;20174;-66
2022/02/08 07:02:55;;;;;;;8.77;7.97;;;7.70;99.90;;;;;;4975692;28;20201;-66
2022/02/08 07:05:21;;;;;;;8.43;7.80;;;7.70;99.90;;;;;;4976312;28;20223;-66
2022/02/08 07:07:47;;;;;;;8.47;7.87;;;7.70;99.90;;;;;;4994616;28;20193;-66
2022/02/08 07:10:13;;;;;;;9.30;8.70;;;7.70;99.90;;;;;;4987598;28;20590;-66
2022/02/08 07:12:40;;;;;;;9.10;8.40;;;7.70;99.90;;;;;;4975425;28;20181;-66
2022/02/08 07:15:11;;;;;;;9.33;8.67;;;7.80;99.90;;;;;;4981048;28;20184;-66
2022/02/08 07:17:37;;;;;;;8.80;8.03;;;7.80;99.90;;;;;;4981190;28;20259;-66
2022/02/08 07:20:04;;;;;;;9.50;8.80;;;7.80;99.90;;;;;;4994871;28;20586;-67
2022/02/08 07:22:31;;;;;;;9.40;8.63;;;7.80;99.90;;;;;;4984136;28;20210;-68
2022/02/08 07:24:58;;;;;;;11.13;10.13;;;7.80;99.90;;;;;;4975291;28;20188;-67
2022/02/08 07:27:24;;;;;;;9.47;8.67;;;7.80;99.90;;;;;;4975834;28;20539;-67
2022/02/08 07:29:54;;;;;;;10.57;9.57;;;7.90;99.90;;;;;;4975568;28;20188;-67
2022/02/08 07:32:28;;;;;;;10.10;9.27;;;7.90;99.90;;;;;;4975490;28;20178;-67
2022/02/08 07:35:06;;;;;;;10.13;9.13;;;7.90;99.90;;;;;;4974019;28;20193;-66
2022/02/08 07:37:44;;;;;;;11.13;7.90;;;7.90;99.90;;;;;;4993446;28;20207;-67
2022/02/08 07:40:16;;;;;;;11.23;9.90;;;7.90;99.90;;;;;;4992304;28;20180;-66
2022/02/08 07:42:41;;;;;;;11.33;10.43;;;7.90;99.90;;;;;;4973084;28;20217;-67
2022/02/08 07:45:07;;;;;;;10.33;9.50;;;7.90;99.90;;;;;;4993218;28;20208;-67
2022/02/08 07:47:33;;;;;;;11.57;10.57;;;8.00;99.90;;;;;;4992863;28;20204;-66
2022/02/08 07:49:58;;;;;;;9.67;8.87;;;8.00;99.90;;;;;;4991980;28;20180;-66
2022/02/08 07:52:24;;;;;;;11.67;10.40;;;8.10;99.90;;;;;;4993492;28;20177;-67
2022/02/08 07:54:50;;;;;;;11.77;10.20;;;8.10;99.90;;;;;;4991876;28;20224;-67
2022/02/08 07:57:16;;;;;;;11.00;10.20;;;8.10;99.90;;;;;;4993093;28;20224;-67
2022/02/08 07:59:42;;;;;;;11.40;10.50;;;8.20;99.90;;;;;;4980284;28;20224;-67
2022/02/08 08:02:07;;;;;;;12.30;10.83;;;8.20;99.90;;;;;;4974515;28;20663;-68
2022/02/08 08:04:33;;;;;;;11.77;9.83;;;8.20;99.90;;;;;;4986516;28;20189;-68
2022/02/08 08:07:00;;;;;;;10.63;9.73;;;8.30;99.90;;;;;;4992901;28;20291;-68
2022/02/08 08:09:26;;;;;;;11.87;10.77;;;8.30;99.90;;;;;;4982105;28;20185;-67
2022/02/08 08:11:53;;;;;;;10.77;9.87;;;8.30;99.90;;;;;;4973130;28;20192;-68
2022/02/08 08:14:21;;;;;;;11.97;10.73;;;8.40;99.90;;;;;;4982688;28;20191;-66
2022/02/08 08:16:55;;;;;;;10.87;9.80;;;8.40;99.90;;;;;;4993165;28;20204;-66
2022/02/08 08:19:36;;;;;;;11.33;10.13;;;8.40;99.90;;;;;;4974038;28;20189;-66
2022/02/08 08:22:06;;;;;;;9.10;8.40;;;8.50;99.90;;;;;;4975995;28;20236;-67
2022/02/08 08:24:32;;;;;;;12.47;10.73;;;8.40;99.90;;;;;;4992674;28;20230;-66
2022/02/08 08:26:58;;;;;;;11.53;10.57;;;8.50;99.90;;;;;;4987196;28;20738;-67
2022/02/08 08:29:23;;;;;;;11.63;10.63;;;8.50;99.90;;;;;;4974428;28;20177;-67
2022/02/08 08:31:49;;;;;;;11.60;10.50;;;8.50;99.90;;;;;;4977759;28;20563;-67
2022/02/08 08:34:14;;;;;;;11.23;10.23;;;8.60;99.90;;;;;;4993430;28;20551;-67
2022/02/08 08:36:42;;;;;;;12.70;9.47;;;8.70;99.90;;;;;;4988496;28;20201;-67
2022/02/08 08:39:09;;;;;;;11.73;10.63;;;8.70;99.90;;;;;;4974351;28;20265;-68
2022/02/08 08:49:35;;;;;;;10.17;9.37;;;9.00;99.90;;;;;;4993505;28;20184;-67
2022/02/08 08:52:00;;;;;;;10.50;9.17;;;9.00;99.90;;;;;;4973733;28;20189;-68
2022/02/08 08:54:26;;;;;;;8.87;8.27;;;9.00;99.90;;;;;;4973658;28;20290;-67
2022/02/08 08:56:52;;;;;;;9.70;8.87;;;9.00;99.90;;;;;;4989373;28;20224;-66
2022/02/08 08:59:19;;;;;;;9.80;8.90;;;9.10;99.90;;;;;;4992173;28;20548;-66
2022/02/08 09:01:46;;;;;;;9.30;8.40;;;9.10;99.90;;;;;;4978191;28;20205;-67
2022/02/08 09:04:12;;;;;;;10.17;9.20;;;9.20;99.90;;;;;;4973031;28;20181;-66
2022/02/08 09:06:38;;;;;;;13.07;9.33;;;9.20;99.90;;;;;;4986554;28;20570;-67
2022/02/08 09:09:10;;;;;;;8.70;8.10;;;9.30;99.90;;;;;;4992888;28;20446;-67
2022/02/08 09:12:06;;;;;;;8.70;7.87;;;9.30;99.90;;;;;;4980305;28;20177;-67
2022/02/08 09:14:41;;;;;;;9.00;8.30;;;9.30;99.90;;;;;;4973487;28;20571;-67
2022/02/08 09:23:18;;;;;;;10.37;9.40;;;9.50;99.90;;;;;;4974869;28;20314;-67
2022/02/08 09:30:35;;;;;;;8.27;7.77;;;9.60;99.90;;;;;;4979992;28;20192;-68
2022/02/08 09:33:01;;;;;;;8.23;7.63;;;9.60;99.90;;;;;;4972902;28;20385;-68
2022/02/08 09:35:27;;;;;;;8.90;7.77;;;9.70;99.90;;;;;;4985156;28;20738;-68
2022/02/08 09:37:52;;;;;;;9.47;7.70;;;9.70;99.90;;;;;;4990771;28;20671;-67
2022/02/08 09:40:21;;;;;;;9.17;8.37;;;9.80;99.90;;;;;;4981435;28;20196;-67
2022/02/08 09:42:48;;;;;;;9.10;8.50;;;9.80;99.90;;;;;;4972049;28;20209;-67
2022/02/08 09:45:19;;;;;;;9.97;7.00;;;9.80;99.90;;;;;;4982314;28;20255;-67
2022/02/08 09:48:29;;;;;;;8.10;7.37;;;9.90;99.90;;;;;;4992125;28;20540;-67
2022/02/08 09:50:42;;;;;;;13.37;7.93;;;9.90;99.90;;;;;;4979684;28;20189;-66
2022/02/08 09:53:13;;;;;;;11.27;7.27;;;9.90;99.90;;;;;;4984113;28;20660;-67
2022/02/08 09:55:40;;;;;;;9.83;7.77;;;10.00;99.90;;;;;;4992098;28;20200;-67
2022/02/08 09:58:09;;;;;;;9.43;8.53;;;10.00;99.90;;;;;;4982451;28;20268;-66
2022/02/08 10:00:36;;;;;;;9.70;8.70;;;10.00;99.90;;;;;;4973145;28;20181;-67
2022/02/08 10:03:07;;;;;;;9.20;8.40;;;10.00;99.90;;;;;;4979709;28;20181;-67
2022/02/08 10:05:50;;;;;;;8.67;8.03;;;10.00;99.90;;;;;;4992545;28;20223;-66
2022/02/08 10:08:16;;;;;;;7.93;7.30;;;10.00;99.90;;;;;;4988356;28;20195;-67
2022/02/08 10:10:45;;;;;;;7.97;7.30;;;10.00;99.90;;;;;;4990884;28;20180;-67
2022/02/08 10:24:11;;;;;;;9.67;8.77;;;10.10;99.90;;;;;;4988113;28;20215;-67
2022/02/08 10:29:21;;;;;;;6.97;6.37;;;10.20;99.90;;;;;;4972454;28;20165;-67
2022/02/08 10:32:16;;;;;;;8.10;7.30;;;10.20;99.90;;;;;;4976008;28;20565;-67
2022/02/08 10:37:49;;;;;;;8.80;8.03;;;10.20;99.90;;;;;;4972566;28;20694;-67
2022/02/08 10:40:23;;;;;;;7.90;7.30;;;10.20;99.90;;;;;;4972418;28;20215;-67
2022/02/08 10:42:55;;;;;;;7.03;6.53;;;10.20;99.90;;;;;;4970964;28;20227;-66
2022/02/08 10:45:30;;;;;;;7.83;6.43;;;10.20;99.90;;;;;;4973302;28;20565;-67
2022/02/08 10:48:05;;;;;;;8.37;6.73;;;10.30;99.90;;;;;;4971092;28;20641;-66
2022/02/08 10:50:34;;;;;;;7.27;6.60;;;10.30;99.90;;;;;;4972730;28;20181;-66
2022/02/08 10:53:02;;;;;;;7.70;7.10;;;10.40;99.90;;;;;;4989714;28;20284;-66
2022/02/08 10:55:50;;;;;;;6.77;6.23;;;10.50;99.90;;;;;;4987299;28;20526;-67
2022/02/08 10:58:29;;;;;;;6.30;6.00;;;10.50;99.90;;;;;;4971629;28;20567;-66
2022/02/08 11:03:38;;;;;;;7.27;6.77;;;10.60;99.90;;;;;;4972319;28;20184;-66
2022/02/08 11:12:01;;;;;;;8.30;6.37;;;10.70;99.90;;;;;;4992036;28;20195;-67
2022/02/08 11:22:34;;;;;;;6.27;5.90;;;10.70;99.90;;;;;;4991361;28;20216;-67
2022/02/08 11:25:31;;;;;;;6.50;5.90;;;10.80;99.90;;;;;;4989400;28;20639;-66
2022/02/08 11:28:16;;;;;;;7.10;6.60;;;10.90;99.90;;;;;;4984309;28;20211;-66
2022/02/08 11:30:58;;;;;;;6.60;6.00;;;10.90;99.90;;;;;;4992489;28;20626;-66
2022/02/08 11:33:56;;;;;;;5.90;5.50;;;10.80;99.90;;;;;;4993530;28;20243;-68
2022/02/08 11:44:56;;;;;;;6.23;5.93;;;11.00;99.90;;;;;;4969806;28;20620;-68
2022/02/08 12:08:55;;;;;;;6.10;5.70;;;11.20;99.90;;;;;;4950274;29;20606;-67
2022/02/08 12:58:12;;;;;;;5.80;5.40;;;11.70;99.90;;;;;;4973849;28;20205;-67
2022/02/08 13:01:15;;;;;;;5.90;5.40;;;11.70;99.90;;;;;;4975750;28;20272;-67
2022/02/08 13:03:47;;;;;;;5.87;5.30;;;11.80;99.90;;;;;;4993020;28;20195;-67
2022/02/08 14:09:47;;;;;;;5.83;5.43;;;11.80;99.90;;;;;;4972651;28;20170;-67
2022/02/08 14:22:48;;;;;;;5.80;5.50;;;11.80;99.90;;;;;;4964482;28;20543;-67
2022/02/08 14:30:30;;;;;;;5.53;5.13;;;12.00;99.90;;;;;;4981500;28;20197;-67
2022/02/08 14:49:28;;;;;;;5.33;5.03;;;12.70;99.90;;;;;;4991510;28;20195;-67
2022/02/08 15:05:38;;;;;;;5.43;5.20;;;11.90;99.90;;;;;;4990513;28;20727;-67
2022/02/08 15:13:09;;;;;;;5.43;5.13;;;11.80;99.90;;;;;;4975447;28;20181;-67
2022/02/08 15:18:06;;;;;;;6.17;5.87;;;11.80;99.90;;;;;;4978613;28;20276;-67
2022/02/08 15:20:32;;;;;;;6.03;5.73;;;11.60;99.90;;;;;;4979055;28;20328;-67
2022/02/08 15:23:00;;;;;;;5.67;5.27;;;11.60;99.90;;;;;;4975254;28;20220;-67
2022/02/08 15:25:28;;;;;;;5.47;5.23;;;11.60;99.90;;;;;;4975767;28;20185;-67
2022/02/08 15:27:54;;;;;;;6.57;6.07;;;11.60;99.90;;;;;;4975350;28;20185;-67
2022/02/08 15:30:19;;;;;;;5.90;5.60;;;11.60;99.90;;;;;;4988758;28;20655;-67
2022/02/08 15:32:46;;;;;;;6.63;6.23;;;11.50;99.90;;;;;;4994527;28;20177;-67
2022/02/08 15:35:11;;;;;;;6.03;5.73;;;11.40;99.90;;;;;;4983082;28;20185;-67
2022/02/08 15:37:37;;;;;;;6.07;5.70;;;11.30;99.90;;;;;;4975359;28;20570;-66
2022/02/08 15:40:07;;;;;;;6.53;6.10;;;11.30;99.90;;;;;;4984839;28;20196;-66
2022/02/08 15:42:38;;;;;;;6.27;5.77;;;11.20;99.90;;;;;;4993012;28;20216;-66
2022/02/08 15:45:13;;;;;;;5.73;5.33;;;11.10;99.90;;;;;;4985110;28;20592;-66
2022/02/08 15:47:39;;;;;;;6.30;6.00;;;11.00;99.90;;;;;;4978140;28;20200;-67
2022/02/08 15:50:11;;;;;;;6.17;5.80;;;10.90;99.90;;;;;;4985247;28;20243;-67
2022/02/08 15:55:34;;;;;;;6.23;5.93;;;10.80;99.90;;;;;;4984590;28;20275;-67
2022/02/08 16:01:05;;;;;;;6.80;6.40;;;10.80;99.90;;;;;;4982761;28;20186;-66
2022/02/08 16:09:11;;;;;;;6.30;5.93;;;10.60;99.90;;;;;;4979107;28;20269;-68
2022/02/08 16:14:16;;;;;;;6.70;6.27;;;10.60;99.90;;;;;;4987896;28;20192;-68
2022/02/08 16:19:44;;;;;;;6.50;6.13;;;10.60;99.90;;;;;;4985711;28;20190;-67
2022/02/08 16:22:29;;;;;;;6.93;6.43;;;10.60;99.90;;;;;;4988424;28;20204;-68
2022/02/08 16:25:23;;;;;;;6.03;5.73;;;10.60;99.90;;;;;;4992342;28;20538;-66
2022/02/08 16:31:02;;;;;;;6.90;6.50;;;10.50;99.90;;;;;;4976524;28;20174;-67
2022/02/08 16:49:25;;;;;;;7.93;7.33;;;10.50;99.90;;;;;;4992622;28;20613;-68
2022/02/08 16:52:28;;;;;;;8.50;7.70;;;10.50;99.90;;;;;;4991813;28;20567;-66
2022/02/08 16:54:55;;;;;;;7.37;6.60;;;10.50;99.90;;;;;;4982412;28;20182;-67
2022/02/08 16:57:36;;;;;;;8.03;7.43;;;10.50;99.90;;;;;;4980151;28;20579;-66
2022/02/08 17:00:09;;;;;;;12.80;10.47;;;10.50;99.90;;;;;;4973954;28;20269;-67
2022/02/08 17:02:38;;;;;;;9.83;8.23;;;10.50;99.90;;;;;;4981499;28;20278;-67
2022/02/08 17:05:04;;;;;;;14.20;11.23;;;10.60;99.90;;;;;;4993121;28;20177;-67
2022/02/08 17:07:37;;;;;;;7.10;6.60;;;10.60;99.90;;;;;;4984432;28;20262;-66
2022/02/08 17:10:06;;;;;;;6.70;6.10;;;10.60;99.90;;;;;;4973520;28;20176;-67
2022/02/08 17:12:44;;;;;;;7.17;6.67;;;10.50;99.90;;;;;;4979005;28;20177;-67
2022/02/08 17:15:35;;;;;;;7.57;6.97;;;10.50;99.90;;;;;;4993016;28;20184;-66
2022/02/08 17:45:56;;;;;;;8.47;7.33;;;10.50;99.90;;;;;;4974170;28;20263;-66
2022/02/08 17:48:08;;;;;;;6.53;6.13;;;10.40;99.90;;;;;;4993061;28;20181;-66
2022/02/08 17:50:34;;;;;;;6.90;6.30;;;10.40;99.90;;;;;;4989308;28;20174;-67
2022/02/08 17:53:00;;;;;;;6.77;6.33;;;10.40;99.90;;;;;;4973498;28;20182;-67
2022/02/08 17:55:26;;;;;;;8.17;7.47;;;10.40;99.90;;;;;;4974209;28;20187;-66
2022/02/08 17:57:52;;;;;;;6.40;5.90;;;10.40;99.90;;;;;;4992362;28;20208;-67
2022/02/08 18:00:18;;;;;;;7.50;7.00;;;10.40;99.90;;;;;;4992385;28;20255;-66
2022/02/08 18:02:45;;;;;;;7.23;6.70;;;10.40;99.90;;;;;;4972757;28;20208;-66
2022/02/08 18:05:12;;;;;;;10.00;7.77;;;10.40;99.90;;;;;;4972996;28;20174;-67
2022/02/08 18:07:38;;;;;;;7.80;7.20;;;10.40;99.90;;;;;;4990916;28;20208;-67
2022/02/08 18:10:05;;;;;;;7.93;6.80;;;10.30;99.90;;;;;;4991460;28;20169;-67
2022/02/08 18:12:31;;;;;;;7.10;6.50;;;10.40;99.90;;;;;;4974929;28;20181;-67
2022/02/08 18:15:00;;;;;;;6.90;6.47;;;10.40;99.90;;;;;;4972711;28;20173;-67
2022/02/08 18:17:30;;;;;;;6.97;6.57;;;10.30;99.90;;;;;;4987945;28;20657;-66
2022/02/08 18:20:04;;;;;;;6.73;6.43;;;10.30;99.90;;;;;;4985252;28;20208;-66
2022/02/08 18:22:49;;;;;;;7.00;6.60;;;10.20;99.90;;;;;;4972063;28;20208;-67
2022/02/08 18:28:09;;;;;;;7.43;7.03;;;10.20;99.90;;;;;;4972446;28;20473;-66
2022/02/08 19:21:59;;;;;;;6.37;5.97;;;10.10;99.90;;;;;;4988543;28;20208;-67
2022/02/08 19:24:25;;;;;;;7.17;6.67;;;10.00;99.90;;;;;;4994901;28;20177;-66
2022/02/08 19:26:55;;;;;;;6.23;5.93;;;10.10;99.90;;;;;;4994676;28;20204;-66
2022/02/08 19:29:21;;;;;;;6.77;6.37;;;10.10;99.90;;;;;;4994792;28;20169;-67
2022/02/08 19:31:48;;;;;;;6.80;6.40;;;10.10;99.90;;;;;;4987829;28;20287;-67
2022/02/08 19:34:13;;;;;;;6.90;6.50;;;10.10;99.90;;;;;;4975265;28;20181;-67
2022/02/08 19:36:39;;;;;;;7.27;6.60;;;10.20;99.90;;;;;;4979325;28;20208;-67
2022/02/08 19:39:05;;;;;;;7.57;6.93;;;10.10;99.90;;;;;;4994784;28;20208;-67
2022/02/08 19:41:32;;;;;;;6.90;6.50;;;10.10;99.90;;;;;;4991406;28;20204;-67
2022/02/08 19:43:59;;;;;;;7.03;6.60;;;10.10;99.90;;;;;;4973299;28;20229;-66
2022/02/08 19:46:25;;;;;;;6.53;6.13;;;10.10;99.90;;;;;;4975909;28;20185;-67
2022/02/08 19:48:51;;;;;;;6.77;6.37;;;10.10;99.90;;;;;;4994445;28;20175;-67
2022/02/08 19:51:16;;;;;;;7.97;7.37;;;10.10;99.90;;;;;;4993032;28;20607;-65
2022/02/08 19:53:45;;;;;;;7.17;6.70;;;10.10;99.90;;;;;;4980036;28;20718;-66
2022/02/08 19:56:24;;;;;;;6.93;6.43;;;10.10;99.90;;;;;;4994436;28;20553;-66
2022/02/08 19:58:54;;;;;;;6.73;6.10;;;10.10;99.90;;;;;;4982996;28;20267;-66
2022/02/08 20:01:31;;;;;;;6.20;5.83;;;10.10;99.90;;;;;;4994373;28;20197;-66
2022/02/08 20:04:03;;;;;;;7.03;6.40;;;10.10;99.90;;;;;;4973372;28;20177;-66
2022/02/08 20:06:30;;;;;;;7.17;6.50;;;10.10;99.90;;;;;;4974963;28;20612;-66
2022/02/08 20:08:56;;;;;;;6.67;6.17;;;10.10;99.90;;;;;;4991945;28;20181;-66
2022/02/08 20:11:23;;;;;;;7.87;7.10;;;10.10;99.90;;;;;;4983061;28;20188;-66
2022/02/08 20:13:56;;;;;;;7.53;6.93;;;10.10;99.90;;;;;;4974534;28;20209;-65
2022/02/08 20:16:22;;;;;;;7.93;7.30;;;10.10;99.90;;;;;;4984589;28;20204;-66
2022/02/08 20:18:52;;;;;;;7.03;6.53;;;10.00;99.90;;;;;;4993660;28;20219;-68
2022/02/08 20:21:18;;;;;;;6.80;6.40;;;10.10;99.90;;;;;;4977408;28;20252;-67
2022/02/08 20:23:44;;;;;;;7.93;7.20;;;10.10;99.90;;;;;;4984596;28;20188;-66
2022/02/08 20:26:10;;;;;;;8.17;7.60;;;10.10;99.90;;;;;;4994258;28;20184;-67
2022/02/08 20:28:38;;;;;;;7.27;6.77;;;10.10;99.90;;;;;;4985251;28;20189;-66
2022/02/08 20:31:05;;;;;;;9.03;8.23;;;10.10;99.90;;;;;;4972733;28;20180;-67
2022/02/08 20:33:31;;;;;;;7.07;6.60;;;10.10;99.90;;;;;;4980786;28;20666;-67
2022/02/08 20:35:57;;;;;;;7.37;6.83;;;10.10;99.90;;;;;;4985016;28;20174;-67
2022/02/08 20:38:22;;;;;;;7.43;6.73;;;10.20;99.90;;;;;;4978494;28;20173;-66
2022/02/08 20:40:51;;;;;;;7.50;6.70;;;10.10;99.90;;;;;;4993963;28;20169;-66
2022/02/08 20:43:17;;;;;;;7.20;6.80;;;10.20;99.90;;;;;;4989142;28;20201;-67
2022/02/08 20:45:43;;;;;;;6.90;6.40;;;10.10;99.90;;;;;;4974096;28;20166;-66
2022/02/08 20:48:10;;;;;;;7.53;7.03;;;10.10;99.90;;;;;;4976636;28;20181;-67
2022/02/08 20:50:39;;;;;;;7.30;6.70;;;10.10;99.90;;;;;;4993456;28;20173;-66
2022/02/08 20:53:15;;;;;;;7.90;7.40;;;10.20;99.90;;;;;;4984099;28;20670;-67
2022/02/08 20:55:48;;;;;;;8.43;7.80;;;10.20;99.90;;;;;;4981811;28;20184;-67
2022/02/08 20:58:26;;;;;;;9.10;8.30;;;10.20;99.90;;;;;;4993521;28;20177;-67
2022/02/08 21:00:52;;;;;;;8.30;7.70;;;10.20;99.90;;;;;;4983365;28;20261;-67